Time;durP1;ratioP1;P1;durP2;ratioP2;P2;SDS_P1;SDS_P2;PMS_P1;PMS_P2;Temp;Humidity;BMP_temperature;BMP_pressure;BME280_temperature;BME280_humidity;BME280_pressure;Samples;Min_cycle;Max_cycle;Signal;HPM_P1;HPM_P2
2020/12/07 00:00:16;;;;;;;4.40;2.80;;;5.00;99.90;;;;;;5063626;28;20025;-51
2020/12/07 00:02:42;;;;;;;4.97;2.90;;;5.00;99.90;;;;;;5062041;28;20024;-48
2020/12/07 00:05:09;;;;;;;4.28;2.90;;;5.00;99.90;;;;;;5063042;28;20016;-47
2020/12/07 00:07:35;;;;;;;3.92;2.88;;;5.10;99.90;;;;;;5063879;28;20580;-49
2020/12/07 00:10:02;;;;;;;4.80;3.20;;;5.10;99.90;;;;;;5062724;28;20111;-50
2020/12/07 00:12:29;;;;;;;10.15;5.45;;;5.10;99.90;;;;;;5063108;28;20039;-49
2020/12/07 00:14:56;;;;;;;9.23;4.80;;;5.10;99.90;;;;;;5062877;28;20029;-50
2020/12/07 00:17:23;;;;;;;10.35;5.07;;;5.20;99.90;;;;;;5063474;28;20028;-49
2020/12/07 00:19:49;;;;;;;11.57;5.22;;;5.00;99.90;;;;;;5069728;28;20025;-50
2020/12/07 00:22:24;;;;;;;12.48;6.53;;;5.10;99.90;;;;;;5069723;28;20278;-48
2020/12/07 00:24:51;;;;;;;10.25;5.35;;;5.10;99.90;;;;;;5073677;28;20104;-48
2020/12/07 00:27:25;;;;;;;12.35;5.60;;;5.20;99.90;;;;;;5077825;28;20028;-49
2020/12/07 00:29:53;;;;;;;10.77;6.28;;;5.10;99.90;;;;;;5069691;28;20062;-50
2020/12/07 00:32:20;;;;;;;12.85;6.15;;;5.10;99.90;;;;;;5070264;28;20044;-48
2020/12/07 00:34:46;;;;;;;10.77;5.60;;;5.00;99.90;;;;;;5069479;28;20283;-51
2020/12/07 00:37:12;;;;;;;11.07;5.45;;;5.00;99.90;;;;;;5073845;28;20093;-50
2020/12/07 00:39:38;;;;;;;9.50;5.05;;;4.90;99.90;;;;;;5078093;28;20501;-51
2020/12/07 00:42:04;;;;;;;7.05;3.90;;;4.70;99.90;;;;;;5081409;28;20093;-48
2020/12/07 00:44:30;;;;;;;7.15;3.85;;;4.70;99.90;;;;;;5077258;28;20025;-49
2020/12/07 00:46:56;;;;;;;4.18;2.80;;;4.70;99.90;;;;;;5070265;28;20443;-50
2020/12/07 00:49:22;;;;;;;4.25;2.75;;;4.70;99.90;;;;;;5069959;28;20514;-49
2020/12/07 00:51:49;;;;;;;6.03;3.13;;;4.70;99.90;;;;;;5076186;28;20434;-50
2020/12/07 00:54:17;;;;;;;5.38;2.70;;;4.80;99.90;;;;;;5072129;28;20024;-49
2020/12/07 00:56:44;;;;;;;5.10;3.13;;;4.80;99.90;;;;;;5070696;28;20021;-51
2020/12/07 00:59:10;;;;;;;4.22;2.53;;;4.80;99.90;;;;;;5070206;28;20028;-49
2020/12/07 01:01:37;;;;;;;4.75;2.85;;;4.80;99.90;;;;;;5070466;28;20054;-50
2020/12/07 01:04:03;;;;;;;4.82;2.83;;;4.70;99.90;;;;;;5069634;28;20063;-52
2020/12/07 01:06:30;;;;;;;4.65;2.83;;;4.80;99.90;;;;;;5069460;28;20040;-51
2020/12/07 01:08:56;;;;;;;4.47;2.65;;;4.70;99.90;;;;;;5069567;28;20490;-50
2020/12/07 01:11:21;;;;;;;4.70;2.97;;;4.70;99.90;;;;;;5070908;28;20060;-49
2020/12/07 01:13:47;;;;;;;5.18;2.92;;;4.60;99.90;;;;;;5070738;28;20074;-48
2020/12/07 01:16:19;;;;;;;4.38;2.90;;;4.50;99.90;;;;;;5086668;28;20509;-48
2020/12/07 01:18:44;;;;;;;4.90;3.00;;;4.40;99.90;;;;;;5090257;28;20024;-48
2020/12/07 01:21:10;;;;;;;5.53;3.15;;;4.40;99.90;;;;;;5090311;28;20024;-47
2020/12/07 01:23:36;;;;;;;4.85;3.08;;;4.40;99.90;;;;;;5070985;28;20028;-49
2020/12/07 01:26:01;;;;;;;4.50;2.83;;;4.50;99.90;;;;;;5069922;28;20534;-48
2020/12/07 01:28:27;;;;;;;5.60;3.08;;;4.50;99.90;;;;;;5070261;28;20040;-50
2020/12/07 01:30:52;;;;;;;3.72;2.72;;;4.60;99.90;;;;;;5066196;28;20390;-49
2020/12/07 01:33:18;;;;;;;3.63;2.63;;;4.50;99.90;;;;;;5066378;28;20017;-52
2020/12/07 01:35:44;;;;;;;6.75;4.07;;;4.50;99.90;;;;;;5067031;28;20028;-49
2020/12/07 01:38:09;;;;;;;5.35;3.30;;;4.70;99.90;;;;;;5066696;28;20040;-50
2020/12/07 01:40:35;;;;;;;5.97;3.60;;;4.60;99.90;;;;;;5067090;28;20029;-48
2020/12/07 01:43:00;;;;;;;5.63;3.22;;;4.60;99.90;;;;;;5074798;28;20103;-51
2020/12/07 01:45:26;;;;;;;5.45;3.47;;;4.70;99.90;;;;;;5085524;28;20088;-51
2020/12/07 01:47:52;;;;;;;4.55;2.97;;;4.70;99.90;;;;;;5086639;28;20036;-48
2020/12/07 01:50:17;;;;;;;4.53;2.85;;;4.60;99.90;;;;;;5080655;28;20024;-52
2020/12/07 01:52:43;;;;;;;4.68;3.25;;;4.50;99.90;;;;;;5066808;28;20025;-51
2020/12/07 01:55:10;;;;;;;4.25;2.92;;;4.50;99.90;;;;;;5084596;28;20062;-51
2020/12/07 01:57:36;;;;;;;5.20;3.30;;;4.40;99.90;;;;;;5087413;28;20028;-49
2020/12/07 02:00:05;;;;;;;5.68;3.45;;;4.40;99.90;;;;;;5086296;28;20039;-50
2020/12/07 02:02:32;;;;;;;4.97;3.20;;;4.50;99.90;;;;;;5083405;28;20024;-49
2020/12/07 02:04:57;;;;;;;5.45;3.58;;;4.60;99.90;;;;;;5069709;28;20532;-48
2020/12/07 02:07:23;;;;;;;5.20;3.53;;;4.60;99.90;;;;;;5086556;28;20020;-49
2020/12/07 02:09:48;;;;;;;4.78;3.03;;;4.70;99.90;;;;;;5084769;28;20414;-49
2020/12/07 02:12:14;;;;;;;6.03;3.80;;;4.70;99.90;;;;;;5085745;28;20042;-48
2020/12/07 02:14:40;;;;;;;6.80;3.55;;;4.70;99.90;;;;;;5065817;28;20043;-49
2020/12/07 02:17:06;;;;;;;5.10;3.60;;;4.70;99.90;;;;;;5066256;28;20025;-48
2020/12/07 02:19:33;;;;;;;5.80;3.72;;;4.70;99.90;;;;;;5065709;28;20028;-50
2020/12/07 02:21:59;;;;;;;6.95;4.00;;;4.70;99.90;;;;;;5066205;28;20020;-48
2020/12/07 02:24:26;;;;;;;6.68;4.00;;;4.60;99.90;;;;;;5066089;28;20056;-49
2020/12/07 02:26:53;;;;;;;7.88;4.28;;;4.70;99.90;;;;;;5065471;28;20040;-49
2020/12/07 02:29:18;;;;;;;6.68;4.05;;;4.80;99.90;;;;;;5065614;28;20032;-48
2020/12/07 02:31:44;;;;;;;7.10;4.40;;;4.80;99.90;;;;;;5065640;28;20028;-49
2020/12/07 02:34:11;;;;;;;7.57;4.35;;;4.60;99.90;;;;;;5064835;28;20082;-48
2020/12/07 02:36:36;;;;;;;5.25;3.90;;;4.60;99.90;;;;;;5066363;28;20040;-48
2020/12/07 02:39:02;;;;;;;5.95;3.58;;;4.60;99.90;;;;;;5065679;28;20025;-49
2020/12/07 02:41:28;;;;;;;6.25;4.10;;;4.70;99.90;;;;;;5065193;28;20013;-49
2020/12/07 02:43:53;;;;;;;8.50;4.30;;;4.70;99.90;;;;;;5065339;28;20549;-51
2020/12/07 02:46:20;;;;;;;8.85;4.70;;;4.70;99.90;;;;;;5065350;28;20112;-49
2020/12/07 02:48:45;;;;;;;7.40;4.50;;;4.70;99.90;;;;;;5065763;28;20070;-50
2020/12/07 02:51:11;;;;;;;7.18;4.35;;;4.70;99.90;;;;;;5064729;28;20032;-50
2020/12/07 02:53:36;;;;;;;7.57;4.60;;;4.70;99.90;;;;;;5066132;28;20028;-49
2020/12/07 02:56:03;;;;;;;7.10;4.03;;;4.70;99.90;;;;;;5064952;28;20055;-49
2020/12/07 02:58:30;;;;;;;7.70;4.63;;;4.60;99.90;;;;;;5065099;28;20082;-51
2020/12/07 03:00:55;;;;;;;6.28;4.15;;;4.50;99.90;;;;;;5064796;28;20522;-48
2020/12/07 03:03:21;;;;;;;6.90;4.00;;;4.70;99.90;;;;;;5064961;28;20064;-50
2020/12/07 03:05:46;;;;;;;7.93;4.55;;;4.60;99.90;;;;;;5065080;28;20102;-48
2020/12/07 03:08:12;;;;;;;8.40;4.97;;;4.60;99.90;;;;;;5064406;28;20021;-49
2020/12/07 03:10:38;;;;;;;7.32;4.50;;;4.50;99.90;;;;;;5078626;28;20446;-48
2020/12/07 03:13:03;;;;;;;6.70;4.20;;;4.40;99.90;;;;;;5085041;28;20028;-48
2020/12/07 03:15:29;;;;;;;7.78;4.75;;;4.40;99.90;;;;;;5085095;28;20529;-48
2020/12/07 03:17:54;;;;;;;7.53;4.57;;;4.40;99.90;;;;;;5084787;28;20024;-49
2020/12/07 03:20:20;;;;;;;6.88;4.45;;;4.50;99.90;;;;;;5073537;28;20391;-48
2020/12/07 03:22:45;;;;;;;5.93;3.83;;;4.60;99.90;;;;;;5069952;28;20069;-49
2020/12/07 03:25:11;;;;;;;9.93;4.40;;;4.70;99.90;;;;;;5084779;28;20028;-50
2020/12/07 03:27:37;;;;;;;7.30;4.40;;;4.60;99.90;;;;;;5085538;28;20024;-48
2020/12/07 03:30:03;;;;;;;7.07;4.38;;;4.30;99.90;;;;;;5075271;28;20036;-50
2020/12/07 03:32:28;;;;;;;7.20;4.20;;;4.40;99.90;;;;;;5064565;28;20020;-51
2020/12/07 03:34:54;;;;;;;5.30;3.30;;;4.40;99.90;;;;;;5064488;28;20051;-48
2020/12/07 03:37:20;;;;;;;8.30;4.63;;;4.50;99.90;;;;;;5064547;28;20047;-50
2020/12/07 03:39:46;;;;;;;6.93;4.18;;;4.20;99.90;;;;;;5069680;28;20023;-48
2020/12/07 03:42:13;;;;;;;6.38;4.00;;;4.30;99.90;;;;;;5084997;28;20035;-51
2020/12/07 03:44:38;;;;;;;7.30;4.63;;;4.40;99.90;;;;;;5085213;28;20024;-51
2020/12/07 03:47:04;;;;;;;8.38;4.82;;;4.50;99.90;;;;;;5084938;28;20032;-50
2020/12/07 03:49:30;;;;;;;9.48;5.88;;;4.50;99.90;;;;;;5080565;28;20032;-49
2020/12/07 03:51:55;;;;;;;8.93;5.47;;;4.60;99.90;;;;;;5064041;28;20510;-49
2020/12/07 03:54:21;;;;;;;6.75;4.25;;;4.50;99.90;;;;;;5063937;28;20233;-51
2020/12/07 03:56:46;;;;;;;8.35;5.28;;;4.50;99.90;;;;;;5064169;28;20020;-51
2020/12/07 03:59:12;;;;;;;7.35;4.65;;;4.50;99.90;;;;;;5063817;28;20064;-49
2020/12/07 04:01:38;;;;;;;9.30;5.20;;;4.40;99.90;;;;;;5068235;28;20020;-51
2020/12/07 04:04:06;;;;;;;6.97;4.70;;;4.40;99.90;;;;;;5067816;28;20047;-49
2020/12/07 04:06:40;;;;;;;6.57;4.20;;;4.40;99.90;;;;;;5064347;28;20058;-48
2020/12/07 04:09:07;;;;;;;8.60;4.73;;;4.40;99.90;;;;;;5064163;28;20032;-50
2020/12/07 04:11:32;;;;;;;6.38;4.50;;;4.40;99.90;;;;;;5083855;28;20402;-48
2020/12/07 04:13:58;;;;;;;6.30;4.30;;;4.20;99.90;;;;;;5084023;28;20501;-48
2020/12/07 04:16:27;;;;;;;7.82;4.78;;;4.20;99.90;;;;;;5084166;28;20032;-48
2020/12/07 04:18:53;;;;;;;6.80;4.20;;;4.30;99.90;;;;;;5071785;28;20025;-49
2020/12/07 04:21:19;;;;;;;5.63;3.70;;;4.30;99.90;;;;;;5063973;28;20211;-49
2020/12/07 04:23:45;;;;;;;6.57;4.43;;;4.30;99.90;;;;;;5063844;28;20063;-48
2020/12/07 04:26:11;;;;;;;7.68;4.43;;;4.20;99.90;;;;;;5063779;28;20029;-49
2020/12/07 04:28:37;;;;;;;5.32;3.97;;;4.20;99.90;;;;;;5064113;28;20387;-48
2020/12/07 04:31:02;;;;;;;6.97;4.55;;;4.20;99.90;;;;;;5063557;28;20021;-48
2020/12/07 04:33:28;;;;;;;6.03;3.92;;;4.20;99.90;;;;;;5063051;28;20483;-49
2020/12/07 04:35:53;;;;;;;7.05;4.28;;;4.20;99.90;;;;;;5063059;28;20072;-48
2020/12/07 04:38:19;;;;;;;7.38;4.55;;;4.30;99.90;;;;;;5063370;28;20060;-50
2020/12/07 04:40:45;;;;;;;6.68;4.68;;;4.20;99.90;;;;;;5076581;28;20032;-50
2020/12/07 04:43:13;;;;;;;8.13;5.07;;;4.20;99.90;;;;;;5082341;28;20040;-49
2020/12/07 04:45:40;;;;;;;7.93;5.07;;;4.10;99.90;;;;;;5083359;28;20055;-51
2020/12/07 04:48:08;;;;;;;6.82;4.78;;;4.30;99.90;;;;;;5078310;28;20024;-49
2020/12/07 04:50:37;;;;;;;8.48;5.07;;;4.20;99.90;;;;;;5068300;28;20115;-49
2020/12/07 04:53:03;;;;;;;7.47;4.55;;;4.10;99.90;;;;;;5066591;28;20025;-50
2020/12/07 04:55:28;;;;;;;7.60;4.68;;;4.10;99.90;;;;;;5065373;28;20093;-52
2020/12/07 04:57:55;;;;;;;7.05;4.53;;;4.30;99.90;;;;;;5081563;28;20033;-51
2020/12/07 05:00:23;;;;;;;6.57;4.32;;;4.20;99.90;;;;;;5077200;28;20441;-49
2020/12/07 05:02:54;;;;;;;6.03;4.00;;;4.20;99.90;;;;;;5063803;28;20028;-48
2020/12/07 05:05:20;;;;;;;6.55;4.20;;;4.10;99.90;;;;;;5071295;28;20115;-48
2020/12/07 05:07:49;;;;;;;5.18;3.72;;;4.00;99.90;;;;;;5074841;28;20024;-49
2020/12/07 05:10:17;;;;;;;7.40;4.75;;;4.10;99.90;;;;;;5088590;28;20127;-50
2020/12/07 05:12:50;;;;;;;5.80;4.00;;;4.20;99.90;;;;;;5081402;28;20418;-48
2020/12/07 05:15:17;;;;;;;6.25;4.32;;;4.30;99.90;;;;;;5068349;28;20032;-51
2020/12/07 05:17:44;;;;;;;6.00;4.35;;;4.60;99.90;;;;;;5069427;28;20036;-49
2020/12/07 05:20:10;;;;;;;7.78;4.35;;;4.80;99.90;;;;;;5068328;28;20035;-49
2020/12/07 05:22:39;;;;;;;7.00;4.38;;;4.80;99.90;;;;;;5087010;28;20056;-48
2020/12/07 05:25:06;;;;;;;6.97;4.20;;;4.80;99.90;;;;;;5080769;28;20052;-49
2020/12/07 05:27:33;;;;;;;6.63;4.63;;;4.80;99.90;;;;;;5067205;28;20441;-49
2020/12/07 05:30:08;;;;;;;6.55;4.60;;;4.70;99.90;;;;;;5066478;28;20082;-49
2020/12/07 05:32:37;;;;;;;6.65;4.20;;;4.70;99.90;;;;;;5067845;28;20024;-49
2020/12/07 05:35:04;;;;;;;6.15;3.80;;;4.60;99.90;;;;;;5071323;28;20032;-50
2020/12/07 05:37:32;;;;;;;7.28;4.55;;;4.50;99.90;;;;;;5066410;28;20083;-49
2020/12/07 05:40:01;;;;;;;8.07;4.60;;;4.50;99.90;;;;;;5084572;28;20102;-48
2020/12/07 05:42:29;;;;;;;7.18;4.70;;;4.50;99.90;;;;;;5085427;28;20020;-48
2020/12/07 05:44:57;;;;;;;6.78;4.35;;;4.40;99.90;;;;;;5081656;28;20032;-49
2020/12/07 05:47:24;;;;;;;7.13;4.82;;;4.30;99.90;;;;;;5066334;28;20017;-48
2020/12/07 05:49:51;;;;;;;8.38;5.25;;;4.40;99.90;;;;;;5079699;28;20075;-48
2020/12/07 05:52:44;;;;;;;9.70;5.10;;;4.40;99.90;;;;;;5084325;28;20035;-47
2020/12/07 05:55:12;;;;;;;9.77;5.47;;;4.30;99.90;;;;;;5071910;28;20131;-48
2020/12/07 05:57:47;;;;;;;8.52;5.45;;;4.60;99.90;;;;;;5066961;28;20027;-51
2020/12/07 06:00:19;;;;;;;8.48;5.18;;;4.80;99.90;;;;;;5065480;28;20027;-48
2020/12/07 06:02:49;;;;;;;7.60;4.80;;;4.90;99.90;;;;;;5066604;28;20290;-49
2020/12/07 06:05:15;;;;;;;8.07;4.93;;;4.80;99.90;;;;;;5070955;28;20035;-49
2020/12/07 06:07:46;;;;;;;11.18;6.13;;;4.90;99.90;;;;;;5086638;28;20107;-47
2020/12/07 06:10:15;;;;;;;10.75;5.85;;;4.90;99.90;;;;;;5086027;28;20032;-48
2020/12/07 06:12:48;;;;;;;10.68;5.90;;;4.80;99.90;;;;;;5086348;28;20024;-51
2020/12/07 06:15:19;;;;;;;13.68;6.88;;;4.70;99.90;;;;;;5083520;28;20542;-48
2020/12/07 06:17:47;;;;;;;11.93;6.43;;;4.50;99.90;;;;;;5065506;28;20545;-49
2020/12/07 06:20:36;;;;;;;10.70;6.25;;;4.40;99.90;;;;;;5065802;28;20016;-48
2020/12/07 06:23:02;;;;;;;11.10;6.72;;;4.40;99.90;;;;;;5065998;28;20020;-47
2020/12/07 06:25:29;;;;;;;11.32;6.72;;;4.40;99.90;;;;;;5065529;28;20074;-48
2020/12/07 06:27:58;;;;;;;12.80;6.80;;;4.50;99.90;;;;;;5066138;28;20042;-48
2020/12/07 06:30:30;;;;;;;11.80;5.90;;;4.60;99.90;;;;;;5065382;28;20445;-50
2020/12/07 06:32:57;;;;;;;11.90;6.80;;;4.50;99.90;;;;;;5065550;28;20025;-48
2020/12/07 06:35:26;;;;;;;10.85;6.07;;;4.30;99.90;;;;;;5066330;28;20036;-51
2020/12/07 06:37:52;;;;;;;11.95;6.70;;;4.30;99.90;;;;;;5084356;28;20081;-48
2020/12/07 06:40:21;;;;;;;12.07;6.70;;;4.40;99.90;;;;;;5085635;28;20016;-51
2020/12/07 06:42:47;;;;;;;10.73;7.13;;;4.30;99.90;;;;;;5085750;28;20023;-48
2020/12/07 06:45:32;;;;;;;11.88;6.35;;;4.30;99.90;;;;;;5084479;28;20016;-48
2020/12/07 06:48:34;;;;;;;11.15;6.50;;;4.20;99.90;;;;;;5065747;28;20024;-48
2020/12/07 06:51:00;;;;;;;10.10;6.63;;;4.20;99.90;;;;;;5051366;28;20777;-47
2020/12/07 06:55:56;;;;;;;9.18;6.20;;;3.90;99.90;;;;;;5084402;28;20573;-48
2020/12/07 06:58:36;;;;;;;8.25;5.18;;;4.00;99.90;;;;;;5085000;28;20091;-50
2020/12/07 07:01:07;;;;;;;8.35;5.00;;;4.10;99.90;;;;;;5084955;28;20541;-47
2020/12/07 07:03:33;;;;;;;7.78;4.97;;;4.10;99.90;;;;;;5084875;28;20035;-50
2020/12/07 07:06:08;;;;;;;8.77;5.47;;;4.20;99.90;;;;;;5065187;28;20032;-48
2020/12/07 07:08:36;;;;;;;6.57;4.65;;;4.20;99.90;;;;;;5065098;28;20028;-48
2020/12/07 07:11:05;;;;;;;9.20;5.80;;;4.10;99.90;;;;;;5064730;28;20047;-48
2020/12/07 07:13:33;;;;;;;9.57;6.18;;;4.30;99.90;;;;;;5064731;28;20030;-48
2020/12/07 07:16:00;;;;;;;10.05;6.05;;;4.30;99.90;;;;;;5083168;28;20409;-48
2020/12/07 07:18:26;;;;;;;9.65;6.15;;;4.30;99.90;;;;;;5084064;28;20039;-48
2020/12/07 07:20:59;;;;;;;8.35;5.68;;;4.20;99.90;;;;;;5085020;28;20028;-48
2020/12/07 07:23:25;;;;;;;9.15;5.57;;;4.30;99.90;;;;;;5084902;28;20024;-54
2020/12/07 07:26:11;;;;;;;8.55;5.55;;;4.30;99.90;;;;;;5066717;28;20547;-49
2020/12/07 07:28:38;;;;;;;9.57;5.70;;;4.40;99.90;;;;;;5064223;28;20031;-48
2020/12/07 07:31:04;;;;;;;10.20;6.63;;;4.40;99.90;;;;;;5065466;28;20043;-49
2020/12/07 07:33:31;;;;;;;11.98;6.90;;;4.40;99.90;;;;;;5064292;28;20021;-50
2020/12/07 07:35:57;;;;;;;10.40;6.20;;;4.40;99.90;;;;;;5064419;28;20027;-48
2020/12/07 07:38:35;;;;;;;9.75;5.72;;;4.50;99.90;;;;;;5064209;28;20033;-48
2020/12/07 07:41:02;;;;;;;7.47;5.40;;;4.40;99.90;;;;;;5064161;28;20028;-48
2020/12/07 07:43:30;;;;;;;8.63;5.40;;;4.30;99.90;;;;;;5063911;28;20031;-49
2020/12/07 07:46:00;;;;;;;10.13;5.97;;;4.40;99.90;;;;;;5064221;28;20040;-48
2020/12/07 07:48:34;;;;;;;9.30;5.38;;;4.50;99.90;;;;;;5064197;28;20023;-48
2020/12/07 08:11:32;;;;;;;8.82;5.20;;;4.50;99.90;;;;;;5063808;28;20516;-49
2020/12/07 08:15:55;;;;;;;8.13;4.47;;;4.60;99.90;;;;;;5074929;28;20028;-51
2020/12/07 08:18:36;;;;;;;7.40;4.95;;;4.60;99.90;;;;;;5085465;28;20489;-51
2020/12/07 08:21:02;;;;;;;8.13;4.72;;;4.60;99.90;;;;;;5070195;28;20028;-48
2020/12/07 08:23:30;;;;;;;8.82;4.63;;;4.80;99.90;;;;;;5076175;28;20065;-51
2020/12/07 08:25:57;;;;;;;8.05;4.75;;;4.70;99.90;;;;;;5085468;28;20608;-53
2020/12/07 08:28:37;;;;;;;6.57;4.35;;;4.70;99.90;;;;;;5076259;28;20354;-52
2020/12/07 08:31:12;;;;;;;6.88;4.82;;;4.80;99.90;;;;;;5064583;28;20061;-49
2020/12/07 08:33:39;;;;;;;;;;;4.70;99.90;;;;;;5065580;28;20060;-50
2020/12/07 08:36:06;;;;;;;7.60;4.72;;;4.80;99.90;;;;;;5065572;28;19951;-51
2020/12/07 08:38:38;;;;;;;6.38;4.00;;;4.90;99.90;;;;;;5072802;28;20113;-49
2020/12/07 08:41:24;;;;;;;7.00;4.50;;;4.90;99.90;;;;;;5076683;28;20031;-50
2020/12/07 08:43:52;;;;;;;7.32;4.75;;;4.90;99.90;;;;;;5069395;28;20025;-49
2020/12/07 08:46:20;;;;;;;6.82;4.47;;;4.90;99.90;;;;;;5069027;28;20363;-51
2020/12/07 08:48:46;;;;;;;6.63;4.10;;;4.90;99.90;;;;;;5068619;28;20115;-50
2020/12/07 08:51:12;;;;;;;8.07;4.50;;;5.00;99.90;;;;;;5080856;28;20637;-51
2020/12/07 08:53:39;;;;;;;8.13;4.85;;;4.90;99.90;;;;;;5069160;28;20031;-52
2020/12/07 08:56:09;;;;;;;9.05;5.60;;;5.00;99.90;;;;;;5079597;28;20107;-49
2020/12/07 08:58:35;;;;;;;10.93;5.55;;;5.10;99.90;;;;;;5079052;28;20036;-50
2020/12/07 09:01:05;;;;;;;13.15;7.88;;;5.20;99.90;;;;;;5068914;28;20878;-50
2020/12/07 09:03:32;;;;;;;12.20;7.15;;;5.10;99.90;;;;;;5073968;28;20097;-53
2020/12/07 09:05:57;;;;;;;9.43;5.75;;;5.20;99.90;;;;;;5089511;28;20524;-50
2020/12/07 09:08:23;;;;;;;8.90;5.72;;;5.40;99.90;;;;;;5089041;28;20032;-50
2020/12/07 09:10:49;;;;;;;8.85;5.35;;;5.30;99.90;;;;;;5083760;28;20472;-49
2020/12/07 09:13:14;;;;;;;9.38;5.95;;;5.40;99.90;;;;;;5073399;28;20036;-51
2020/12/07 09:15:40;;;;;;;10.88;6.43;;;5.40;99.90;;;;;;5067522;28;20055;-53
2020/12/07 09:18:06;;;;;;;10.15;6.22;;;5.50;99.90;;;;;;5067834;28;20032;-53
2020/12/07 09:20:31;;;;;;;17.42;8.82;;;5.40;99.90;;;;;;5066990;28;20029;-51
2020/12/07 09:22:57;;;;;;;18.65;8.80;;;5.50;99.90;;;;;;5067152;28;20503;-50
2020/12/07 09:25:22;;;;;;;15.30;7.68;;;5.40;99.90;;;;;;5066972;28;20028;-53
2020/12/07 09:27:48;;;;;;;14.95;7.30;;;5.40;99.90;;;;;;5066886;28;20070;-51
2020/12/07 09:30:14;;;;;;;11.73;5.97;;;5.30;99.90;;;;;;5066502;28;20031;-50
2020/12/07 09:32:39;;;;;;;11.48;5.10;;;5.40;99.90;;;;;;5065418;28;20142;-51
2020/12/07 09:35:08;;;;;;;8.30;4.40;;;5.60;99.90;;;;;;5067584;28;20389;-50
2020/12/07 09:37:34;;;;;;;8.18;4.40;;;5.70;99.90;;;;;;5066356;28;20025;-49
2020/12/07 09:40:00;;;;;;;7.50;3.97;;;5.70;99.90;;;;;;5066838;28;20020;-49
2020/12/07 09:42:27;;;;;;;6.05;3.60;;;5.90;99.90;;;;;;5066423;28;20486;-49
2020/12/07 09:44:52;;;;;;;6.63;3.45;;;5.90;99.90;;;;;;5066844;28;20482;-50
2020/12/07 09:47:18;;;;;;;7.07;4.03;;;5.90;99.90;;;;;;5066627;28;20039;-50
2020/12/07 09:49:43;;;;;;;6.53;3.70;;;5.90;99.90;;;;;;5066800;28;20082;-51
2020/12/07 09:52:09;;;;;;;5.97;3.65;;;6.00;99.90;;;;;;5065361;28;20033;-51
2020/12/07 09:54:39;;;;;;;6.30;3.83;;;5.90;99.90;;;;;;5066911;28;20514;-50
2020/12/07 09:57:05;;;;;;;6.10;3.65;;;5.90;99.90;;;;;;5066648;28;20510;-49
2020/12/07 09:59:32;;;;;;;6.50;3.97;;;6.00;99.90;;;;;;5066168;28;20397;-49
2020/12/07 10:01:59;;;;;;;5.13;3.60;;;6.10;99.90;;;;;;5066300;28;20051;-51
2020/12/07 10:04:25;;;;;;;4.28;3.40;;;6.10;99.90;;;;;;5066297;28;20028;-50
2020/12/07 10:06:52;;;;;;;5.15;3.70;;;6.00;99.90;;;;;;5066256;28;20098;-50
2020/12/07 10:09:18;;;;;;;6.70;3.40;;;5.80;99.90;;;;;;5066293;28;20144;-50
2020/12/07 10:11:44;;;;;;;4.50;3.05;;;5.90;99.90;;;;;;5066095;28;20036;-50
2020/12/07 10:14:10;;;;;;;3.95;2.53;;;5.90;99.90;;;;;;5066552;28;20052;-50
2020/12/07 10:16:36;;;;;;;6.22;4.35;;;6.00;99.90;;;;;;5066441;28;20540;-52
2020/12/07 10:19:01;;;;;;;6.20;3.90;;;6.00;99.90;;;;;;5066157;28;20561;-53
2020/12/07 10:21:28;;;;;;;6.53;4.00;;;6.00;99.90;;;;;;5065864;28;20107;-49
2020/12/07 10:23:54;;;;;;;5.68;3.38;;;6.10;99.90;;;;;;5066192;28;20024;-50
2020/12/07 10:26:24;;;;;;;4.80;3.13;;;6.20;99.90;;;;;;5065619;28;20135;-50
2020/12/07 10:28:51;;;;;;;3.13;2.40;;;6.30;99.90;;;;;;5065951;28;20028;-54
2020/12/07 10:31:19;;;;;;;3.17;2.20;;;6.30;99.90;;;;;;5065811;28;20100;-51
2020/12/07 10:33:46;;;;;;;4.22;2.67;;;6.40;99.90;;;;;;5065763;28;20058;-53
2020/12/07 10:36:12;;;;;;;4.13;2.92;;;6.60;99.90;;;;;;5066274;28;20036;-52
2020/12/07 10:38:39;;;;;;;3.42;2.38;;;6.70;99.90;;;;;;5066398;28;20100;-52
2020/12/07 10:41:05;;;;;;;4.18;2.40;;;6.70;99.90;;;;;;5066115;28;20028;-51
2020/12/07 10:43:31;;;;;;;4.38;2.47;;;6.80;99.90;;;;;;5065339;28;20028;-51
2020/12/07 10:45:57;;;;;;;4.13;2.85;;;6.90;99.90;;;;;;5065708;28;20116;-49
2020/12/07 10:48:23;;;;;;;3.33;2.30;;;6.80;99.90;;;;;;5065229;28;20099;-49
2020/12/07 10:50:48;;;;;;;3.88;2.05;;;6.90;99.90;;;;;;5065450;28;20393;-50
2020/12/07 10:53:14;;;;;;;4.45;2.70;;;6.90;99.90;;;;;;5064656;28;20033;-49
2020/12/07 10:55:42;;;;;;;3.70;2.30;;;7.00;99.90;;;;;;5065356;28;20033;-53
2020/12/07 10:58:08;;;;;;;3.67;2.22;;;7.20;99.90;;;;;;5065829;28;20125;-50
2020/12/07 11:00:37;;;;;;;3.50;2.50;;;7.40;99.90;;;;;;5083194;28;20055;-49
2020/12/07 11:03:04;;;;;;;3.30;2.50;;;7.30;99.90;;;;;;5070655;28;20030;-49
2020/12/07 11:05:30;;;;;;;3.90;2.38;;;7.50;99.90;;;;;;5065248;28;20466;-50
2020/12/07 11:07:56;;;;;;;3.47;2.20;;;7.80;99.90;;;;;;5066547;28;20029;-53
2020/12/07 11:10:21;;;;;;;2.50;1.92;;;7.70;99.90;;;;;;5069363;28;20267;-50
2020/12/07 11:12:54;;;;;;;3.90;2.45;;;7.70;99.90;;;;;;5068386;28;20037;-50
2020/12/07 11:15:19;;;;;;;3.20;2.10;;;7.60;99.90;;;;;;5081816;28;20028;-49
2020/12/07 11:17:45;;;;;;;3.05;2.28;;;7.90;99.90;;;;;;5066332;28;20021;-50
2020/12/07 11:20:11;;;;;;;3.33;2.33;;;7.80;99.90;;;;;;5075729;28;20024;-51
2020/12/07 11:22:36;;;;;;;2.65;2.00;;;7.80;99.90;;;;;;5075753;28;20522;-52
2020/12/07 11:25:02;;;;;;;3.88;2.35;;;8.10;99.90;;;;;;5066516;28;20482;-50
2020/12/07 11:27:28;;;;;;;2.45;1.95;;;8.10;99.90;;;;;;5074500;28;20676;-50
2020/12/07 11:29:54;;;;;;;2.50;2.03;;;8.20;99.90;;;;;;5068080;28;20024;-51
2020/12/07 11:32:19;;;;;;;3.80;2.47;;;8.20;99.90;;;;;;5064544;28;20141;-49
2020/12/07 11:34:45;;;;;;;3.42;2.50;;;8.10;99.90;;;;;;5066502;28;20070;-53
2020/12/07 11:37:11;;;;;;;2.90;2.20;;;8.20;99.90;;;;;;5066266;28;20558;-52
2020/12/07 11:42:32;;;;;;;4.38;2.30;;;8.40;99.90;;;;;;5076967;28;20423;-52
2020/12/07 11:44:58;;;;;;;3.60;2.40;;;8.30;99.90;;;;;;5066430;28;20016;-49
2020/12/07 11:47:23;;;;;;;1.80;1.30;;;8.60;99.90;;;;;;5082154;28;20032;-53
2020/12/07 11:49:49;;;;;;;1.98;1.65;;;8.80;99.90;;;;;;5085998;28;20516;-49
2020/12/07 11:52:15;;;;;;;1.75;1.48;;;8.70;99.90;;;;;;5070201;28;20021;-52
2020/12/07 11:54:41;;;;;;;4.38;2.30;;;8.60;99.90;;;;;;5065792;28;20032;-52
2020/12/07 11:57:07;;;;;;;2.58;1.65;;;8.70;99.90;;;;;;5065410;28;20029;-50
2020/12/07 11:59:35;;;;;;;2.55;1.70;;;8.70;99.90;;;;;;5065242;28;20032;-50
2020/12/07 12:02:03;;;;;;;1.85;1.33;;;8.70;99.90;;;;;;5069520;28;20127;-51
2020/12/07 12:04:29;;;;;;;2.20;1.60;;;8.90;99.90;;;;;;5074738;28;20107;-50
2020/12/07 12:06:54;;;;;;;3.65;2.10;;;8.90;99.90;;;;;;5080393;28;20569;-48
2020/12/07 12:09:20;;;;;;;3.58;2.08;;;8.70;99.90;;;;;;5072193;28;20537;-51
2020/12/07 12:11:46;;;;;;;2.55;2.00;;;8.80;99.90;;;;;;5066718;28;20036;-51
2020/12/07 12:14:12;;;;;;;2.92;1.85;;;8.90;99.90;;;;;;5063596;28;20529;-49
2020/12/07 12:16:39;;;;;;;3.05;2.13;;;9.00;99.90;;;;;;5063461;28;20028;-49
2020/12/07 12:19:10;;;;;;;2.25;1.92;;;9.00;99.90;;;;;;5064251;28;20159;-50
2020/12/07 12:21:36;;;;;;;2.25;1.75;;;9.00;99.90;;;;;;5063479;28;20024;-50
2020/12/07 12:24:05;;;;;;;2.20;1.75;;;9.00;99.90;;;;;;5063612;28;20028;-49
2020/12/07 12:26:35;;;;;;;2.67;1.92;;;9.20;99.90;;;;;;5063082;28;20114;-50
2020/12/07 12:29:02;;;;;;;2.78;2.10;;;9.10;99.90;;;;;;5063645;28;20411;-49
2020/12/07 12:31:28;;;;;;;2.70;2.10;;;9.10;99.90;;;;;;5062790;28;20032;-49
2020/12/07 12:33:55;;;;;;;5.32;2.58;;;9.00;99.90;;;;;;5063490;28;20458;-50
2020/12/07 12:36:25;;;;;;;3.85;2.67;;;8.80;99.90;;;;;;5062798;28;20024;-49
2020/12/07 12:38:51;;;;;;;4.38;2.58;;;9.00;99.90;;;;;;5068388;28;20145;-49
2020/12/07 12:41:17;;;;;;;2.67;2.00;;;9.10;99.90;;;;;;5070495;28;20513;-49
2020/12/07 12:43:43;;;;;;;3.15;2.10;;;9.20;99.90;;;;;;5083182;28;20482;-52
2020/12/07 12:46:09;;;;;;;4.88;3.05;;;9.10;99.90;;;;;;5084264;28;20012;-50
2020/12/07 12:48:36;;;;;;;4.00;2.55;;;9.00;99.90;;;;;;5083989;28;20036;-50
2020/12/07 12:51:02;;;;;;;3.95;2.78;;;8.80;99.90;;;;;;5074780;28;20123;-50
2020/12/07 12:53:27;;;;;;;3.47;2.40;;;8.60;99.90;;;;;;5072554;28;20100;-52
2020/12/07 12:55:53;;;;;;;1.90;1.60;;;8.90;99.90;;;;;;5062771;28;20549;-50
2020/12/07 12:58:20;;;;;;;2.30;1.80;;;9.10;99.90;;;;;;5080035;28;20444;-50
2020/12/07 13:00:46;;;;;;;3.05;1.85;;;9.10;99.90;;;;;;5079958;28;20060;-52
2020/12/07 13:03:14;;;;;;;2.63;2.08;;;9.10;99.90;;;;;;5062465;28;20490;-51
2020/12/07 13:05:40;;;;;;;3.22;1.90;;;9.20;99.90;;;;;;5063749;28;20044;-52
2020/12/07 13:08:06;;;;;;;2.58;2.05;;;9.00;99.90;;;;;;5063803;28;20032;-53
2020/12/07 13:10:31;;;;;;;3.47;2.20;;;8.80;99.90;;;;;;5062184;28;20060;-49
2020/12/07 13:12:57;;;;;;;2.72;1.88;;;9.10;99.90;;;;;;5074726;28;20028;-50
2020/12/07 13:15:25;;;;;;;3.28;2.38;;;9.00;99.90;;;;;;5064411;28;20067;-49
2020/12/07 13:17:56;;;;;;;3.53;2.25;;;8.90;99.90;;;;;;5081249;28;20082;-49
2020/12/07 13:20:30;;;;;;;2.45;2.00;;;8.90;99.90;;;;;;5067800;28;20054;-51
2020/12/07 13:23:08;;;;;;;2.60;1.90;;;9.10;99.90;;;;;;5076328;28;20016;-50